Pagrindinis puslapis
METAR-TAF:

METAR-TAF

Oro uostai :

Okeechobee, Florida, Jungtinės Amerikos Valstijos

platuma: 27-15-58N, ilguma: 080-51-04W, Aukštis: 10 m

Dabartinis oras

Ataskaita buvo paskelbta 24 minutes, ne 04:15 UTC
Vėjas 7 kt iš Rytų, svyruoja nuo Šiaurės Rytų ir Rytų/Pietryčių
Temperatūra 21°C
Drėgmė 94%
Slėgis 1018 hPa
Matomumas: 16.1 km
Giedras dangus
Perkūnija kaimynystėje

METAR: KOBE 290415Z AUTO 08007KT 045V105 10SM VCTS CLR 21/20 A3006 RMK AO2 LTG DSNT E AND SW

Laikas: 00:39 (04:39 UTC)


TAF: trūkstamas

Orai ataskaitas ir orų prognozės (METAR, TAF).

turimą stotys yra geltonos ir raudonos taškus žemėlapyje.

Perkelti pele per norėdami pamatyti stoties vardą.

Tada spustelėkite, norėdami matyti oro stebėjimo ir prognozės.

Norėdami pakeisti žemėlapį: spustelėkite ant žalios mygtukų su juodo kryžiaus žemyn,; žalią mygtuką su brūkšneliu, jei norite nutolinti; arba žalių rodyklių gretimoms žemėlapius.


METAR-TAF: